Terminal Aerodrome Forecast
Issued by NWS

Home | Current Version | Previous Version | Graphics & Text | Print | Product List | Glossary On
Versions: 1 2 3 4 5 6 7 8 9 10 11 12 13 14 15 16 17 18 19 20 21 22 23
000
FTUS43 KGRB 161400 AAA
TAFMTW
TAF AMD
KMTW 161456Z 1615/1712 34010KT 5SM -RA BR OVC004
      TEMPO 1618/1619 2SM -RAPLSN BR
     FM161900 33014G22KT 2SM -SN BR SCT008 OVC015
      TEMPO 1700/1702 4SM -SN
     FM170200 30014G22KT P6SM -SN BKN020 OVC035=

USA.gov is the U.S. government's official web portal to all federal, state and local government web resources and services.